Time;durP1;ratioP1;P1;durP2;ratioP2;P2;SDS_P1;SDS_P2;PMS_P1;PMS_P2;Temp;Humidity;BMP_temperature;BMP_pressure;BME280_temperature;BME280_humidity;BME280_pressure;Samples;Min_cycle;Max_cycle;Signal;HPM_P1;HPM_P2
2022/04/12 00:01:24;;;;;;;6.23;3.70;;;10.30;1.00;;;;;;5034695;28;20213;-57
2022/04/12 00:03:50;;;;;;;5.73;3.13;;;10.30;1.00;;;;;;5034379;28;20797;-56
2022/04/12 00:06:18;;;;;;;4.63;2.87;;;10.30;1.00;;;;;;5034301;28;20251;-57
2022/04/12 00:08:45;;;;;;;7.30;3.10;;;10.40;1.00;;;;;;5034070;28;20231;-57
2022/04/12 00:11:12;;;;;;;5.13;3.40;;;10.40;1.00;;;;;;5034452;28;20239;-56
2022/04/12 00:13:38;;;;;;;5.23;3.17;;;10.30;1.00;;;;;;5034291;28;20302;-58
2022/04/12 00:16:05;;;;;;;5.93;3.33;;;10.30;1.00;;;;;;5034094;28;20212;-55
2022/04/12 00:21:17;;;;;;;5.77;3.10;;;10.40;1.00;;;;;;5034025;28;20243;-57
2022/04/12 00:23:45;;;;;;;5.80;2.90;;;10.40;1.00;;;;;;5033911;28;20209;-55
2022/04/12 00:26:12;;;;;;;6.53;3.20;;;10.30;1.00;;;;;;5032954;28;20216;-57
2022/04/12 00:28:40;;;;;;;5.80;3.00;;;10.30;1.00;;;;;;5034234;28;20290;-58
2022/04/12 00:31:07;;;;;;;7.37;3.20;;;10.30;1.00;;;;;;5033933;28;20226;-58
2022/04/12 00:33:34;;;;;;;4.80;3.40;;;10.30;1.00;;;;;;5033973;28;20219;-57
2022/04/12 00:36:04;;;;;;;7.37;3.17;;;10.30;1.00;;;;;;5033521;28;20212;-58
2022/04/12 00:38:33;;;;;;;5.37;3.27;;;10.30;1.00;;;;;;5033773;28;20612;-55
2022/04/12 00:41:00;;;;;;;5.67;3.47;;;10.30;1.00;;;;;;5033955;28;20627;-57
2022/04/12 00:43:30;;;;;;;6.57;3.17;;;10.30;1.00;;;;;;5033540;28;20560;-58
2022/04/12 00:46:00;;;;;;;7.30;3.20;;;10.20;1.00;;;;;;5033642;28;20208;-54
2022/04/12 00:48:27;;;;;;;5.97;3.13;;;10.20;1.00;;;;;;5033331;28;20230;-57
2022/04/12 00:50:54;;;;;;;5.03;3.30;;;10.20;1.00;;;;;;5033913;28;20231;-56
2022/04/12 00:53:21;;;;;;;6.70;3.23;;;10.20;1.00;;;;;;5033749;28;20214;-55
2022/04/12 00:55:50;;;;;;;6.90;3.00;;;10.10;1.00;;;;;;5033691;28;20266;-57
2022/04/12 00:58:17;;;;;;;5.37;3.07;;;10.10;1.00;;;;;;5033268;28;20318;-57
2022/04/12 01:00:44;;;;;;;6.00;3.27;;;10.10;1.00;;;;;;5033387;28;20742;-57
2022/04/12 01:03:11;;;;;;;6.47;3.37;;;10.10;1.00;;;;;;5033310;28;20215;-57
2022/04/12 01:05:39;;;;;;;4.33;3.00;;;10.20;1.00;;;;;;5033528;28;20252;-56
2022/04/12 01:08:05;;;;;;;5.00;3.63;;;10.20;1.00;;;;;;5033266;28;20357;-56
2022/04/12 01:10:33;;;;;;;5.17;3.47;;;10.20;1.00;;;;;;5033300;28;20299;-57
2022/04/12 01:13:02;;;;;;;4.70;3.37;;;10.20;1.00;;;;;;5033236;28;20211;-57
2022/04/12 01:15:29;;;;;;;8.77;3.07;;;10.20;1.00;;;;;;5033074;28;20207;-58
2022/04/12 01:17:56;;;;;;;5.97;3.13;;;10.30;1.00;;;;;;5032958;28;20227;-57
2022/04/12 01:20:25;;;;;;;5.20;3.27;;;10.20;1.00;;;;;;5033045;28;20302;-58
2022/04/12 01:22:59;;;;;;;5.17;3.10;;;10.20;1.00;;;;;;5032608;28;20679;-56
2022/04/12 01:25:27;;;;;;;6.07;3.17;;;10.20;1.00;;;;;;5032980;28;20212;-56
2022/04/12 01:27:54;;;;;;;6.60;3.10;;;10.20;1.00;;;;;;5032357;28;20227;-55
2022/04/12 01:30:21;;;;;;;5.73;3.37;;;10.20;1.00;;;;;;5033194;28;20212;-56
2022/04/12 01:32:48;;;;;;;5.37;3.33;;;10.20;1.00;;;;;;5032974;28;20254;-57
2022/04/12 01:35:14;;;;;;;4.67;3.13;;;10.20;1.00;;;;;;5032602;28;20271;-56
2022/04/12 01:37:41;;;;;;;5.10;3.13;;;10.20;1.00;;;;;;5032378;28;20230;-57
2022/04/12 01:40:09;;;;;;;4.57;3.23;;;10.20;1.00;;;;;;5032353;28;20247;-54
2022/04/12 01:42:37;;;;;;;4.67;2.70;;;10.20;1.00;;;;;;5032621;28;20252;-55
2022/04/12 01:45:04;;;;;;;4.73;3.23;;;10.20;1.00;;;;;;5032667;28;20554;-52
2022/04/12 01:47:31;;;;;;;5.10;2.77;;;10.20;1.00;;;;;;5031998;28;20237;-56
2022/04/12 01:49:58;;;;;;;4.47;3.07;;;10.10;1.00;;;;;;5032682;28;20266;-55
2022/04/12 01:52:24;;;;;;;7.10;3.77;;;10.20;1.00;;;;;;5032308;28;20792;-56
2022/04/12 01:54:51;;;;;;;5.50;2.70;;;10.20;1.00;;;;;;5032370;28;20691;-58
2022/04/12 01:57:18;;;;;;;5.83;3.03;;;10.20;1.00;;;;;;5031770;28;20234;-55
2022/04/12 01:59:46;;;;;;;4.57;3.17;;;10.20;1.00;;;;;;5032531;28;20257;-57
2022/04/12 02:02:13;;;;;;;3.67;3.10;;;10.20;1.00;;;;;;5032652;28;20230;-57
2022/04/12 02:04:39;;;;;;;4.50;3.00;;;10.20;1.00;;;;;;5032939;28;20210;-56
2022/04/12 02:07:06;;;;;;;4.13;3.20;;;10.10;1.00;;;;;;5031976;28;20282;-58
2022/04/12 02:09:33;;;;;;;5.63;3.17;;;10.10;1.00;;;;;;5031966;28;20678;-57
2022/04/12 02:12:00;;;;;;;4.20;2.57;;;10.10;1.00;;;;;;5032278;28;20231;-55
2022/04/12 02:14:27;;;;;;;3.67;2.70;;;10.10;1.00;;;;;;5032154;28;20282;-57
2022/04/12 02:16:55;;;;;;;5.80;2.90;;;10.20;1.00;;;;;;5031678;28;20740;-54
2022/04/12 02:19:22;;;;;;;4.23;2.70;;;10.20;1.00;;;;;;5032033;28;20207;-56
2022/04/12 02:21:48;;;;;;;4.73;2.80;;;10.20;1.00;;;;;;5032011;28;20672;-55
2022/04/12 02:24:15;;;;;;;4.27;3.00;;;10.20;1.00;;;;;;5031786;28;20243;-58
2022/04/12 02:26:42;;;;;;;5.27;3.30;;;10.20;1.00;;;;;;5031639;28;20212;-58
2022/04/12 02:29:09;;;;;;;5.20;2.87;;;10.10;1.00;;;;;;5032134;28;20208;-57
2022/04/12 02:31:36;;;;;;;5.80;3.30;;;10.10;1.00;;;;;;5031656;28;20218;-58
2022/04/12 02:34:04;;;;;;;4.43;2.87;;;10.10;1.00;;;;;;5031959;28;20270;-58
2022/04/12 02:36:31;;;;;;;4.70;3.10;;;10.10;1.00;;;;;;5031344;28;20216;-58
2022/04/12 02:38:58;;;;;;;5.40;2.77;;;10.20;1.00;;;;;;5032017;28;20256;-58
2022/04/12 02:41:24;;;;;;;5.00;3.20;;;10.20;1.00;;;;;;5031942;28;20254;-56
2022/04/12 02:43:51;;;;;;;5.97;3.53;;;10.10;1.00;;;;;;5032083;28;20246;-57
2022/04/12 02:46:18;;;;;;;5.03;3.23;;;10.20;1.00;;;;;;5031524;28;20208;-58
2022/04/12 02:48:44;;;;;;;5.10;2.83;;;10.10;1.00;;;;;;5033931;28;20274;-58
2022/04/12 02:51:12;;;;;;;5.77;3.20;;;10.20;1.00;;;;;;5035680;28;20236;-58
2022/04/12 02:53:39;;;;;;;7.03;3.10;;;10.20;1.00;;;;;;5035841;28;20213;-58
2022/04/12 02:56:06;;;;;;;4.13;2.80;;;10.20;1.00;;;;;;5035393;28;20264;-58
2022/04/12 02:58:32;;;;;;;5.23;2.70;;;10.20;1.00;;;;;;5035806;28;20281;-58
2022/04/12 03:00:59;;;;;;;4.70;2.97;;;10.30;1.00;;;;;;5036081;28;20217;-57
2022/04/12 03:03:26;;;;;;;4.83;3.33;;;10.30;1.00;;;;;;5036295;28;20205;-58
2022/04/12 03:05:53;;;;;;;4.23;2.73;;;10.30;1.00;;;;;;5035486;28;20274;-57
2022/04/12 03:08:21;;;;;;;4.60;3.17;;;10.30;1.00;;;;;;5035821;28;20375;-58
2022/04/12 03:10:47;;;;;;;5.20;2.70;;;10.30;1.00;;;;;;5035413;28;20334;-58
2022/04/12 03:13:14;;;;;;;4.60;2.73;;;10.30;1.00;;;;;;5035479;28;20233;-58
2022/04/12 03:15:40;;;;;;;5.00;2.80;;;10.40;1.00;;;;;;5035318;28;20279;-55
2022/04/12 03:18:07;;;;;;;6.43;3.50;;;10.40;1.00;;;;;;5035049;28;20275;-56
2022/04/12 03:20:34;;;;;;;4.90;2.73;;;10.40;1.00;;;;;;5035177;28;20698;-58
2022/04/12 03:23:01;;;;;;;6.33;3.20;;;10.50;1.00;;;;;;5035465;28;20604;-54
2022/04/12 03:25:29;;;;;;;4.63;3.07;;;10.50;1.00;;;;;;5035121;28;20752;-57
2022/04/12 03:27:55;;;;;;;5.53;3.30;;;10.40;1.00;;;;;;5034781;28;20240;-57
2022/04/12 03:30:22;;;;;;;4.13;2.80;;;10.40;1.00;;;;;;5035269;28;20267;-58
2022/04/12 03:32:49;;;;;;;5.93;2.80;;;10.50;1.00;;;;;;5034980;28;20227;-58
2022/04/12 03:35:15;;;;;;;5.20;2.67;;;10.40;1.00;;;;;;5034807;28;20216;-58
2022/04/12 03:37:42;;;;;;;3.83;2.43;;;10.40;1.00;;;;;;5034825;28;20230;-57
2022/04/12 03:40:10;;;;;;;6.00;2.93;;;10.40;1.00;;;;;;5034617;28;20216;-57
2022/04/12 03:42:38;;;;;;;4.70;2.93;;;10.40;1.00;;;;;;5035065;28;20234;-58
2022/04/12 03:45:06;;;;;;;5.40;2.83;;;10.40;1.00;;;;;;5034750;28;20214;-58
2022/04/12 03:47:33;;;;;;;5.73;3.30;;;10.40;1.00;;;;;;5034182;28;20850;-58
2022/04/12 03:50:00;;;;;;;4.37;2.97;;;10.40;1.00;;;;;;5034780;28;20261;-56
2022/04/12 03:52:26;;;;;;;5.37;2.80;;;10.50;1.00;;;;;;5034839;28;20234;-57
2022/04/12 03:54:53;;;;;;;3.67;2.70;;;10.50;1.00;;;;;;5034591;28;20213;-56
2022/04/12 03:57:20;;;;;;;7.37;3.00;;;10.50;1.00;;;;;;5034520;28;20274;-58
2022/04/12 03:59:48;;;;;;;9.93;5.27;;;10.50;1.00;;;;;;5034398;28;20582;-58
2022/04/12 04:02:15;;;;;;;5.30;3.50;;;10.50;1.00;;;;;;5034231;28;20269;-58
2022/04/12 04:04:42;;;;;;;4.87;3.13;;;10.50;1.00;;;;;;5034633;28;20640;-57
2022/04/12 04:07:08;;;;;;;4.57;3.13;;;10.50;1.00;;;;;;5033957;28;20730;-57
2022/04/12 04:09:35;;;;;;;3.20;2.73;;;10.50;1.00;;;;;;5034495;28;20210;-58
2022/04/12 04:12:03;;;;;;;5.47;2.97;;;10.60;1.00;;;;;;5034359;28;20649;-58
2022/04/12 04:14:32;;;;;;;6.20;3.40;;;10.50;1.00;;;;;;5034254;28;20205;-58
2022/04/12 04:17:01;;;;;;;5.63;3.20;;;10.50;1.00;;;;;;5034054;28;20320;-57
2022/04/12 04:19:28;;;;;;;4.60;3.00;;;10.60;1.00;;;;;;5034166;28;20216;-58
2022/04/12 04:21:55;;;;;;;6.20;3.37;;;10.60;1.00;;;;;;5034277;28;20201;-58
2022/04/12 04:24:22;;;;;;;4.33;2.77;;;10.50;1.00;;;;;;5034051;28;20220;-58
2022/04/12 04:26:54;;;;;;;5.43;2.97;;;10.50;1.00;;;;;;5033751;28;20833;-58
2022/04/12 04:29:22;;;;;;;5.03;3.23;;;10.50;1.00;;;;;;5033810;28;20224;-58
2022/04/12 04:31:48;;;;;;;4.03;3.07;;;10.60;1.00;;;;;;5034135;28;20228;-58
2022/04/12 04:34:16;;;;;;;4.83;3.03;;;10.60;1.00;;;;;;5033923;28;20354;-55
2022/04/12 04:36:43;;;;;;;6.03;3.30;;;10.60;1.00;;;;;;5033661;28;20212;-57
2022/04/12 04:39:10;;;;;;;6.50;3.20;;;10.60;1.00;;;;;;5033915;28;20255;-57
2022/04/12 04:41:36;;;;;;;5.13;3.30;;;10.70;1.00;;;;;;5033791;28;20267;-57
2022/04/12 04:44:03;;;;;;;6.17;2.80;;;10.70;1.00;;;;;;5032458;28;20253;-63
2022/04/12 04:46:30;;;;;;;4.17;2.87;;;10.70;1.00;;;;;;5031926;28;20595;-59
2022/04/12 04:48:57;;;;;;;4.33;2.97;;;10.70;1.00;;;;;;5033304;28;20225;-59
2022/04/12 04:51:25;;;;;;;5.87;3.17;;;10.70;1.00;;;;;;5033249;28;20208;-59
2022/04/12 04:53:58;;;;;;;4.90;2.80;;;10.70;1.00;;;;;;5033088;28;20270;-59
2022/04/12 04:56:24;;;;;;;5.00;3.03;;;10.70;1.00;;;;;;5033080;28;20213;-58
2022/04/12 04:58:51;;;;;;;6.07;3.10;;;10.70;1.00;;;;;;5033494;28;20299;-59
2022/04/12 05:01:18;;;;;;;5.33;3.10;;;10.60;1.00;;;;;;5033654;28;20208;-59
2022/04/12 05:03:44;;;;;;;3.50;2.37;;;10.70;1.00;;;;;;5033164;28;20202;-60
2022/04/12 05:06:11;;;;;;;4.83;3.00;;;10.60;1.00;;;;;;5032822;28;20237;-60
2022/04/12 05:08:39;;;;;;;6.10;3.00;;;10.60;1.00;;;;;;5033077;28;20229;-58
2022/04/12 05:11:06;;;;;;;5.67;2.90;;;10.60;1.00;;;;;;5032266;28;20286;-59
2022/04/12 05:13:32;;;;;;;4.60;2.70;;;10.60;1.00;;;;;;5033243;28;20575;-59
2022/04/12 05:15:59;;;;;;;5.30;2.23;;;10.60;1.00;;;;;;5032376;28;20210;-59
2022/04/12 05:18:26;;;;;;;3.40;2.50;;;10.60;1.00;;;;;;5033095;28;20287;-60
2022/04/12 05:20:53;;;;;;;5.63;2.73;;;10.60;1.00;;;;;;5032393;28;20214;-60
2022/04/12 05:23:20;;;;;;;3.37;2.30;;;10.60;1.00;;;;;;5021354;28;20209;-59
2022/04/12 05:25:48;;;;;;;5.77;2.33;;;10.60;1.00;;;;;;5034772;28;20756;-59
2022/04/12 05:28:14;;;;;;;4.83;2.13;;;10.60;1.00;;;;;;5051971;28;20227;-58
2022/04/12 05:30:41;;;;;;;3.70;2.43;;;10.70;1.00;;;;;;5052286;28;20227;-60
2022/04/12 05:33:08;;;;;;;4.37;2.17;;;10.70;1.00;;;;;;5051578;28;20291;-54
2022/04/12 05:35:35;;;;;;;3.67;2.20;;;10.80;1.00;;;;;;5051809;28;20208;-58
2022/04/12 05:38:04;;;;;;;5.80;2.20;;;10.70;1.00;;;;;;5051769;28;20286;-58
2022/04/12 05:40:30;;;;;;;4.17;2.50;;;10.70;1.00;;;;;;5051566;28;20261;-59
2022/04/12 05:42:58;;;;;;;4.00;2.30;;;10.80;1.00;;;;;;5046403;28;20289;-58
2022/04/12 05:45:26;;;;;;;6.77;2.10;;;10.80;1.00;;;;;;5031690;28;20638;-56
2022/04/12 05:47:54;;;;;;;2.73;2.23;;;10.80;1.00;;;;;;5031503;28;20293;-56
2022/04/12 05:50:23;;;;;;;4.33;2.13;;;10.80;1.00;;;;;;5031849;28;20310;-58
2022/04/12 05:52:50;;;;;;;7.33;2.20;;;10.80;1.00;;;;;;5031247;28;20247;-57
2022/04/12 05:55:19;;;;;;;6.07;2.33;;;10.90;1.00;;;;;;5032151;28;20212;-58
2022/04/12 05:57:51;;;;;;;3.23;2.07;;;11.00;1.00;;;;;;5031116;28;20238;-57
2022/04/12 06:00:20;;;;;;;3.97;2.50;;;11.00;1.00;;;;;;5031663;28;20679;-57
2022/04/12 06:02:47;;;;;;;5.93;2.37;;;11.20;1.00;;;;;;5031436;28;20687;-58
2022/04/12 06:05:14;;;;;;;3.90;2.40;;;11.30;1.00;;;;;;5031259;28;20592;-58
2022/04/12 06:07:41;;;;;;;2.50;2.00;;;11.40;1.00;;;;;;5031537;28;20234;-57
2022/04/12 06:10:09;;;;;;;5.10;2.70;;;11.60;1.00;;;;;;5031579;28;20202;-59
2022/04/12 06:12:36;;;;;;;3.47;2.20;;;11.60;1.00;;;;;;5031873;28;20230;-58
2022/04/12 06:15:03;;;;;;;3.70;2.30;;;11.60;1.00;;;;;;5031496;28;20272;-57
2022/04/12 06:17:32;;;;;;;3.47;2.13;;;11.70;1.00;;;;;;5030688;28;20233;-57
2022/04/12 06:20:03;;;;;;;3.40;2.60;;;11.80;1.00;;;;;;5031788;28;20241;-57
2022/04/12 06:22:30;;;;;;;4.97;2.80;;;11.90;1.00;;;;;;5031251;28;20210;-61
2022/04/12 06:24:57;;;;;;;5.03;2.30;;;12.00;1.00;;;;;;5031677;28;20210;-60
2022/04/12 06:27:31;;;;;;;2.80;2.10;;;12.10;1.00;;;;;;5030679;28;20237;-58
2022/04/12 06:29:58;;;;;;;4.27;2.10;;;12.10;1.00;;;;;;5031529;28;20760;-56
2022/04/12 06:32:26;;;;;;;3.73;2.40;;;12.10;1.00;;;;;;5031136;28;20642;-59
2022/04/12 06:34:55;;;;;;;5.17;2.40;;;12.10;1.00;;;;;;5030960;28;20760;-59
2022/04/12 06:37:25;;;;;;;7.47;2.70;;;12.10;1.00;;;;;;5031056;28;20320;-59
2022/04/12 06:39:52;;;;;;;5.00;2.80;;;12.10;1.00;;;;;;5031286;28;20202;-59
2022/04/12 06:42:18;;;;;;;5.50;2.90;;;12.20;1.00;;;;;;5031382;28;20206;-59
2022/04/12 06:44:45;;;;;;;5.87;2.90;;;12.30;1.00;;;;;;5030806;28;20206;-59
2022/04/12 06:47:12;;;;;;;4.57;2.40;;;12.50;1.00;;;;;;5030671;28;20232;-60
2022/04/12 06:49:38;;;;;;;3.87;2.60;;;12.50;1.00;;;;;;5031382;28;20578;-60
2022/04/12 06:52:07;;;;;;;5.70;2.70;;;12.60;1.00;;;;;;5030961;28;20297;-59
2022/04/12 06:54:34;;;;;;;5.67;2.67;;;12.80;1.00;;;;;;5030976;28;20731;-60
2022/04/12 06:57:00;;;;;;;4.70;2.90;;;13.00;1.00;;;;;;5030460;28;20316;-58
2022/04/12 06:59:28;;;;;;;4.10;2.93;;;13.00;1.00;;;;;;5030797;28;20643;-59
2022/04/12 07:01:55;;;;;;;6.87;2.70;;;13.10;1.00;;;;;;5031304;28;20211;-60
2022/04/12 07:04:22;;;;;;;5.13;2.87;;;13.20;1.00;;;;;;5030387;28;20207;-55
2022/04/12 07:06:49;;;;;;;6.30;3.00;;;13.20;1.00;;;;;;5030571;28;20273;-58
2022/04/12 07:09:20;;;;;;;5.00;2.77;;;13.30;1.00;;;;;;5030848;28;20214;-58
2022/04/12 07:11:47;;;;;;;4.77;2.57;;;13.40;1.00;;;;;;5030940;28;20274;-61
2022/04/12 07:14:13;;;;;;;5.37;2.57;;;13.60;1.00;;;;;;5030849;28;20287;-60
2022/04/12 07:16:40;;;;;;;5.23;3.30;;;13.70;1.00;;;;;;5030511;28;20227;-60
2022/04/12 07:19:07;;;;;;;4.10;2.70;;;13.80;1.00;;;;;;5031067;28;20207;-59
2022/04/12 07:21:34;;;;;;;3.77;2.60;;;13.90;1.00;;;;;;5030403;28;20213;-56
2022/04/12 07:24:03;;;;;;;4.20;2.70;;;13.90;1.00;;;;;;5030894;28;20239;-57
2022/04/12 07:26:31;;;;;;;4.43;2.90;;;14.00;1.00;;;;;;5030375;28;20308;-59
2022/04/12 07:28:59;;;;;;;6.03;2.60;;;14.10;1.00;;;;;;5030673;28;20260;-52
2022/04/12 07:31:26;;;;;;;4.27;2.70;;;14.20;1.00;;;;;;5030904;28;20208;-57
2022/04/12 07:33:53;;;;;;;5.13;2.70;;;14.50;1.00;;;;;;5031452;28;20241;-60
2022/04/12 07:36:20;;;;;;;4.80;2.93;;;14.60;1.00;;;;;;5034366;28;20221;-60
2022/04/12 07:38:48;;;;;;;4.77;2.67;;;14.60;1.00;;;;;;5034266;28;20237;-61
2022/04/12 07:41:15;;;;;;;6.37;2.53;;;14.60;1.00;;;;;;5034541;28;20205;-59
2022/04/12 07:43:45;;;;;;;5.87;2.57;;;14.70;1.00;;;;;;5034236;28;20209;-61
2022/04/12 07:46:12;;;;;;;5.57;2.53;;;14.90;1.00;;;;;;5033759;28;20221;-61
2022/04/12 07:48:39;;;;;;;3.50;2.60;;;14.90;1.00;;;;;;5033951;28;20293;-62
2022/04/12 07:51:05;;;;;;;4.53;2.43;;;15.00;1.00;;;;;;5034217;28;20202;-62
2022/04/12 07:53:32;;;;;;;3.73;2.30;;;15.10;1.00;;;;;;5033409;28;20276;-61
2022/04/12 07:55:59;;;;;;;7.83;2.47;;;15.30;1.00;;;;;;5033779;28;20221;-59
2022/04/12 07:58:25;;;;;;;4.23;1.97;;;15.40;1.00;;;;;;5033211;28;20226;-59
2022/04/12 08:00:53;;;;;;;4.10;2.03;;;15.50;6.00;;;;;;5033926;28;20650;-58
2022/04/12 08:03:21;;;;;;;4.80;2.10;;;15.70;1.00;;;;;;5033449;28;20198;-59
2022/04/12 08:05:48;;;;;;;2.83;1.63;;;15.80;1.00;;;;;;5033421;28;20212;-59
2022/04/12 08:08:14;;;;;;;3.10;1.80;;;15.90;1.00;;;;;;5033334;28;20292;-59
2022/04/12 08:10:41;;;;;;;3.77;2.10;;;15.90;1.00;;;;;;5033617;28;20256;-59
2022/04/12 08:13:08;;;;;;;4.47;2.13;;;16.10;1.00;;;;;;5033672;28;20651;-59
2022/04/12 08:15:36;;;;;;;1.93;1.50;;;16.20;1.00;;;;;;5033433;28;20206;-59
2022/04/12 08:18:05;;;;;;;3.03;1.70;;;16.30;1.00;;;;;;5033328;28;20260;-59
2022/04/12 08:20:32;;;;;;;2.93;1.60;;;16.40;1.00;;;;;;5033533;28;20206;-59
2022/04/12 08:22:58;;;;;;;3.17;1.80;;;16.40;1.00;;;;;;5033256;28;20198;-55
2022/04/12 08:25:26;;;;;;;3.30;1.70;;;16.50;1.00;;;;;;5033550;28;20210;-60
2022/04/12 08:27:53;;;;;;;3.17;1.80;;;16.50;1.00;;;;;;5032739;28;20233;-57
2022/04/12 08:30:19;;;;;;;3.00;1.63;;;16.70;1.00;;;;;;5033519;28;20214;-56
2022/04/12 08:32:46;;;;;;;2.90;1.57;;;16.70;1.00;;;;;;5033235;28;20276;-59
2022/04/12 08:35:14;;;;;;;4.00;1.40;;;16.90;1.00;;;;;;5032876;28;20212;-59
2022/04/12 08:37:43;;;;;;;3.43;1.57;;;17.00;1.00;;;;;;5033134;28;20234;-58
2022/04/12 08:40:11;;;;;;;2.27;1.43;;;17.00;1.00;;;;;;5032679;28;20213;-57
2022/04/12 08:42:39;;;;;;;1.50;1.23;;;17.10;1.00;;;;;;5033139;28;20207;-58
2022/04/12 08:45:07;;;;;;;3.23;1.83;;;17.30;2.80;;;;;;5032081;28;20727;-57
2022/04/12 08:47:35;;;;;;;2.50;1.90;;;17.10;1.20;;;;;;5032297;28;20737;-56
2022/04/12 08:50:02;;;;;;;5.77;1.60;;;17.20;1.00;;;;;;5032955;28;20210;-55
2022/04/12 08:52:31;;;;;;;3.80;1.80;;;17.20;1.00;;;;;;5033081;28;20565;-59
2022/04/12 08:54:58;;;;;;;1.97;1.37;;;17.20;1.00;;;;;;5032859;28;20226;-58
2022/04/12 08:57:25;;;;;;;2.53;1.40;;;17.20;1.00;;;;;;5032601;28;20233;-56
2022/04/12 08:59:52;;;;;;;2.77;1.53;;;17.30;1.00;;;;;;5032725;28;20260;-58
2022/04/12 09:02:19;;;;;;;3.23;1.90;;;17.60;3.80;;;;;;5032532;28;20214;-58
2022/04/12 09:04:45;;;;;;;2.87;1.90;;;17.60;1.50;;;;;;5032151;28;20202;-55
2022/04/12 09:07:13;;;;;;;2.10;1.60;;;17.70;4.10;;;;;;5032652;28;20230;-62
2022/04/12 09:09:43;;;;;;;5.53;1.80;;;17.70;2.30;;;;;;5032577;28;20214;-59
2022/04/12 09:12:12;;;;;;;2.60;1.43;;;18.00;5.00;;;;;;5032878;28;20607;-60
2022/04/12 09:14:40;;;;;;;3.27;1.60;;;18.20;5.50;;;;;;5031999;28;20234;-61
2022/04/12 09:17:09;;;;;;;4.40;1.30;;;18.20;5.20;;;;;;5032119;28;20226;-61
2022/04/12 09:19:40;;;;;;;4.27;1.57;;;18.30;5.40;;;;;;5032379;28;20207;-60
2022/04/12 09:22:12;;;;;;;3.23;1.40;;;18.30;5.90;;;;;;5032020;28;20210;-60
2022/04/12 09:24:43;;;;;;;2.80;1.60;;;18.30;5.80;;;;;;5032328;28;20210;-60
2022/04/12 09:27:13;;;;;;;2.30;1.20;;;18.40;6.90;;;;;;5031705;28;20226;-61
2022/04/12 09:29:44;;;;;;;4.47;1.60;;;18.50;7.00;;;;;;5031985;28;20428;-59
2022/04/12 09:32:14;;;;;;;2.03;1.70;;;18.50;7.30;;;;;;5032482;28;20272;-62
2022/04/12 09:34:41;;;;;;;4.67;1.40;;;18.60;7.50;;;;;;5031952;28;20250;-61
2022/04/12 09:37:24;;;;;;;4.47;1.60;;;18.70;8.40;;;;;;5032465;28;20310;-62
2022/04/12 09:40:04;;;;;;;3.33;1.50;;;18.70;8.40;;;;;;5031894;28;20234;-63
2022/04/12 09:42:39;;;;;;;3.47;1.60;;;18.80;10.40;;;;;;5032415;28;20202;-62
2022/04/12 09:45:08;;;;;;;1.63;1.33;;;19.00;11.20;;;;;;5031968;28;20256;-62
2022/04/12 09:47:36;;;;;;;1.90;1.20;;;18.90;10.30;;;;;;5030884;28;20238;-62
2022/04/12 09:50:03;;;;;;;5.07;1.60;;;19.00;12.00;;;;;;5031655;28;20555;-59
2022/04/12 09:52:30;;;;;;;1.67;1.27;;;19.20;12.50;;;;;;5031348;28;20206;-59
2022/04/12 09:54:59;;;;;;;3.13;1.30;;;19.30;12.40;;;;;;5031553;28;20229;-61
2022/04/12 09:57:26;;;;;;;5.33;1.90;;;19.30;12.70;;;;;;5030979;28;20230;-60
2022/04/12 09:59:55;;;;;;;2.50;1.37;;;19.30;14.80;;;;;;5031592;28;20700;-60
2022/04/12 10:02:24;;;;;;;3.93;1.53;;;19.30;13.00;;;;;;5031557;28;20237;-61
2022/04/12 10:04:52;;;;;;;2.90;1.60;;;19.60;14.10;;;;;;5031140;28;20222;-56
2022/04/12 10:07:21;;;;;;;2.97;1.30;;;19.70;14.20;;;;;;5031428;28;20325;-60
2022/04/12 10:09:50;;;;;;;2.83;1.40;;;19.80;14.70;;;;;;5031298;28;20206;-58
2022/04/12 10:12:18;;;;;;;3.50;1.40;;;19.70;13.10;;;;;;5031387;28;20210;-59
2022/04/12 10:14:46;;;;;;;1.57;1.10;;;19.80;14.50;;;;;;5031134;28;20292;-57
2022/04/12 10:17:14;;;;;;;2.70;1.40;;;19.80;14.10;;;;;;5030363;28;20226;-58
2022/04/12 10:19:41;;;;;;;2.40;1.37;;;19.70;12.40;;;;;;5031329;28;20750;-57
2022/04/12 10:22:08;;;;;;;3.60;1.30;;;19.70;11.80;;;;;;5031191;28;20206;-60
2022/04/12 10:24:37;;;;;;;1.57;1.17;;;19.80;12.60;;;;;;5031184;28;20342;-57
2022/04/12 10:27:05;;;;;;;4.07;1.60;;;20.00;13.70;;;;;;5030171;28;20241;-58
2022/04/12 10:29:33;;;;;;;3.57;1.50;;;20.00;13.00;;;;;;5030662;28;20206;-56
2022/04/12 10:32:01;;;;;;;2.53;1.30;;;20.10;14.00;;;;;;5031421;28;20210;-59
2022/04/12 10:34:28;;;;;;;4.80;1.43;;;20.10;14.70;;;;;;5030472;28;20704;-59
2022/04/12 10:37:08;;;;;;;1.80;1.30;;;20.20;15.90;;;;;;5031049;28;20261;-61
2022/04/12 10:39:43;;;;;;;4.57;1.33;;;20.30;14.80;;;;;;5031027;28;20210;-60
2022/04/12 10:42:14;;;;;;;3.97;1.50;;;20.30;15.20;;;;;;5030635;28;20210;-60
2022/04/12 10:44:45;;;;;;;3.63;1.40;;;20.40;18.30;;;;;;5031069;28;20254;-61
2022/04/12 10:47:32;;;;;;;2.37;1.20;;;20.60;17.40;;;;;;5030355;28;20245;-61
2022/04/12 10:50:00;;;;;;;2.27;1.20;;;20.60;17.10;;;;;;5031112;28;20256;-60
2022/04/12 10:52:35;;;;;;;3.30;1.47;;;20.30;13.40;;;;;;5030418;28;20259;-61
2022/04/12 10:55:03;;;;;;;2.17;1.10;;;20.40;17.80;;;;;;5031791;28;20283;-60
2022/04/12 10:57:30;;;;;;;3.47;1.23;;;20.40;15.20;;;;;;5030665;28;20230;-60
2022/04/12 11:00:08;;;;;;;1.90;0.97;;;20.50;16.50;;;;;;5030337;28;20252;-59
2022/04/12 11:02:38;;;;;;;1.67;0.87;;;20.60;14.90;;;;;;5030845;28;20206;-60
2022/04/12 11:05:06;;;;;;;1.77;1.10;;;20.60;15.80;;;;;;5030580;28;20205;-60
2022/04/12 11:07:35;;;;;;;4.60;1.23;;;20.60;16.70;;;;;;5030334;28;20859;-60
2022/04/12 11:10:23;;;;;;;4.97;1.03;;;20.80;18.90;;;;;;5033451;28;20210;-60
2022/04/12 11:13:03;;;;;;;2.67;1.20;;;21.00;19.30;;;;;;5031504;28;20264;-59
2022/04/12 11:15:32;;;;;;;3.93;1.10;;;20.80;15.80;;;;;;5034521;28;20226;-60
2022/04/12 11:18:10;;;;;;;3.07;0.97;;;20.70;16.20;;;;;;5034397;28;20684;-60
2022/04/12 11:20:38;;;;;;;2.50;1.03;;;20.90;17.50;;;;;;5034947;28;20206;-61
2022/04/12 11:23:08;;;;;;;2.90;1.00;;;21.10;20.40;;;;;;5034420;28;20622;-60
2022/04/12 11:25:46;;;;;;;3.60;1.00;;;21.30;21.40;;;;;;5034579;28;20301;-61
2022/04/12 11:28:15;;;;;;;2.10;1.00;;;21.10;20.40;;;;;;5034426;28;20638;-60
2022/04/12 11:30:53;;;;;;;2.17;1.17;;;21.10;17.80;;;;;;5034696;28;20242;-61
2022/04/12 11:33:23;;;;;;;2.17;1.00;;;21.30;19.70;;;;;;5034466;28;20210;-61
2022/04/12 11:35:51;;;;;;;1.37;0.80;;;21.50;21.40;;;;;;5034044;28;20260;-61
2022/04/12 11:38:19;;;;;;;4.63;1.00;;;21.60;22.10;;;;;;5034049;28;20302;-61
2022/04/12 11:40:46;;;;;;;3.43;0.93;;;21.70;23.50;;;;;;5034096;28;20260;-60
2022/04/12 11:43:21;;;;;;;1.50;0.93;;;21.80;25.90;;;;;;5034403;28;20206;-61
2022/04/12 11:45:52;;;;;;;1.70;0.80;;;21.70;24.00;;;;;;5034148;28;20304;-60
2022/04/12 11:48:20;;;;;;;1.70;0.77;;;21.80;24.80;;;;;;5033508;28;20881;-61
2022/04/12 11:50:51;;;;;;;2.60;0.90;;;21.70;22.00;;;;;;5034407;28;20202;-60
2022/04/12 11:53:17;;;;;;;2.07;0.73;;;21.80;23.50;;;;;;5033610;28;20214;-58
2022/04/12 11:55:45;;;;;;;1.13;0.90;;;21.80;22.10;;;;;;5032539;28;20214;-61
2022/04/12 11:58:12;;;;;;;3.17;1.03;;;21.90;23.10;;;;;;5032565;28;20226;-60
2022/04/12 12:00:39;;;;;;;1.63;0.90;;;22.00;24.70;;;;;;5031977;28;20214;-59
2022/04/12 12:03:15;;;;;;;1.83;0.80;;;22.20;26.90;;;;;;5032491;28;20271;-64
2022/04/12 12:05:42;;;;;;;1.87;1.00;;;22.30;27.00;;;;;;5032698;28;20708;-61
2022/04/12 12:08:10;;;;;;;3.70;1.20;;;22.20;25.20;;;;;;5032337;28;20230;-61
2022/04/12 12:10:37;;;;;;;6.20;1.30;;;22.40;27.20;;;;;;5032698;28;20210;-60
2022/04/12 12:13:06;;;;;;;1.33;0.80;;;22.60;28.00;;;;;;5033962;28;20206;-60
2022/04/12 12:15:34;;;;;;;1.30;0.90;;;22.60;29.90;;;;;;5033924;28;20736;-60
2022/04/12 12:18:03;;;;;;;2.50;1.10;;;22.60;28.80;;;;;;5032941;28;20329;-60
2022/04/12 12:20:34;;;;;;;3.37;0.90;;;22.40;26.50;;;;;;5033936;28;20210;-60
2022/04/12 12:23:02;;;;;;;1.80;0.80;;;22.20;23.70;;;;;;5033378;28;20202;-60
2022/04/12 12:25:55;;;;;;;2.40;0.90;;;22.20;24.00;;;;;;5033315;28;20226;-60
2022/04/12 12:28:23;;;;;;;2.20;0.87;;;22.30;23.80;;;;;;5032668;28;20241;-60
2022/04/12 12:30:57;;;;;;;2.90;0.90;;;22.10;22.10;;;;;;5032537;28;20206;-61
2022/04/12 12:33:24;;;;;;;1.37;0.83;;;22.00;21.30;;;;;;5032334;28;20264;-60
2022/04/12 12:35:52;;;;;;;1.57;0.90;;;22.00;24.30;;;;;;5032326;28;20238;-61
2022/04/12 12:38:27;;;;;;;4.03;1.97;;;21.80;17.40;;;;;;5032972;28;20629;-62
2022/04/12 12:40:57;;;;;;;1.40;0.63;;;21.50;15.40;;;;;;5032509;28;20206;-61
2022/04/12 12:43:26;;;;;;;0.70;0.53;;;21.40;12.90;;;;;;5032335;28;20639;-60
2022/04/12 12:45:52;;;;;;;1.03;0.80;;;21.50;14.60;;;;;;5031769;28;20581;-59
2022/04/12 12:48:20;;;;;;;1.20;1.00;;;21.70;17.90;;;;;;5031667;28;20234;-60
2022/04/12 12:50:47;;;;;;;1.90;0.77;;;21.80;17.50;;;;;;5032188;28;20210;-60
2022/04/12 12:53:18;;;;;;;2.53;1.07;;;22.10;19.80;;;;;;5030336;28;20861;-61
2022/04/12 12:55:46;;;;;;;1.97;0.87;;;22.40;23.30;;;;;;5031718;28;20207;-62
2022/04/12 12:58:16;;;;;;;3.10;0.73;;;22.40;21.60;;;;;;5031107;28;20225;-62
2022/04/12 13:00:43;;;;;;;2.47;0.90;;;22.50;23.30;;;;;;5031829;28;20206;-63
2022/04/12 13:03:12;;;;;;;2.00;0.83;;;22.40;22.90;;;;;;5031977;28;20214;-62